sensor_id;sensor_type;location;lat;lon;timestamp;temperature;humidity
39665;DHT22;26679;50.872;4.332;2022-11-20T00:00:12;6.40;99.90
39665;DHT22;26679;50.872;4.332;2022-11-20T00:02:37;6.30;99.90
39665;DHT22;26679;50.872;4.332;2022-11-20T00:05:03;6.10;99.90
39665;DHT22;26679;50.872;4.332;2022-11-20T00:07:28;6.00;99.90
39665;DHT22;26679;50.872;4.332;2022-11-20T00:09:54;5.70;99.90
39665;DHT22;26679;50.872;4.332;2022-11-20T00:12:19;5.80;99.90
39665;DHT22;26679;50.872;4.332;2022-11-20T00:14:45;5.90;99.90
39665;DHT22;26679;50.872;4.332;2022-11-20T00:17:10;6.00;99.90
39665;DHT22;26679;50.872;4.332;2022-11-20T00:19:36;6.10;99.90
39665;DHT22;26679;50.872;4.332;2022-11-20T00:22:01;6.20;99.90
39665;DHT22;26679;50.872;4.332;2022-11-20T00:24:27;6.20;99.90
39665;DHT22;26679;50.872;4.332;2022-11-20T00:26:53;6.20;99.90
39665;DHT22;26679;50.872;4.332;2022-11-20T00:29:18;6.30;99.90
39665;DHT22;26679;50.872;4.332;2022-11-20T00:31:44;6.40;99.90
39665;DHT22;26679;50.872;4.332;2022-11-20T00:34:09;6.40;99.90
39665;DHT22;26679;50.872;4.332;2022-11-20T00:36:35;6.30;99.90
39665;DHT22;26679;50.872;4.332;2022-11-20T00:39:01;7.30;99.90
39665;DHT22;26679;50.872;4.332;2022-11-20T00:41:27;6.20;99.90
39665;DHT22;26679;50.872;4.332;2022-11-20T00:43:54;6.20;99.90
39665;DHT22;26679;50.872;4.332;2022-11-20T00:46:20;6.20;99.90
39665;DHT22;26679;50.872;4.332;2022-11-20T00:48:46;6.20;99.90
39665;DHT22;26679;50.872;4.332;2022-11-20T00:51:13;6.20;99.90
39665;DHT22;26679;50.872;4.332;2022-11-20T00:53:39;6.20;99.90
39665;DHT22;26679;50.872;4.332;2022-11-20T00:56:06;6.10;99.90
39665;DHT22;26679;50.872;4.332;2022-11-20T00:58:32;6.10;99.90
39665;DHT22;26679;50.872;4.332;2022-11-20T01:03:27;6.00;99.90
39665;DHT22;26679;50.872;4.332;2022-11-20T01:05:52;6.10;99.90
39665;DHT22;26679;50.872;4.332;2022-11-20T01:08:18;6.10;99.90
39665;DHT22;26679;50.872;4.332;2022-11-20T01:10:43;6.20;99.90
39665;DHT22;26679;50.872;4.332;2022-11-20T01:13:09;6.20;99.90
39665;DHT22;26679;50.872;4.332;2022-11-20T01:15:45;6.20;99.90
39665;DHT22;26679;50.872;4.332;2022-11-20T01:18:11;6.20;99.90
39665;DHT22;26679;50.872;4.332;2022-11-20T01:20:36;6.20;99.90
39665;DHT22;26679;50.872;4.332;2022-11-20T01:23:02;6.20;99.90
39665;DHT22;26679;50.872;4.332;2022-11-20T01:25:28;6.10;99.90
39665;DHT22;26679;50.872;4.332;2022-11-20T01:27:54;6.10;99.90
39665;DHT22;26679;50.872;4.332;2022-11-20T01:30:21;6.40;99.90
39665;DHT22;26679;50.872;4.332;2022-11-20T01:32:47;6.20;99.90
39665;DHT22;26679;50.872;4.332;2022-11-20T01:35:12;6.20;99.90
39665;DHT22;26679;50.872;4.332;2022-11-20T01:37:38;6.20;99.90
39665;DHT22;26679;50.872;4.332;2022-11-20T01:40:03;6.20;99.90
39665;DHT22;26679;50.872;4.332;2022-11-20T01:42:29;6.20;99.90
39665;DHT22;26679;50.872;4.332;2022-11-20T01:47:45;6.30;99.90
39665;DHT22;26679;50.872;4.332;2022-11-20T01:50:12;6.30;99.90
39665;DHT22;26679;50.872;4.332;2022-11-20T01:52:41;6.30;99.90
39665;DHT22;26679;50.872;4.332;2022-11-20T01:57:44;6.20;99.90
39665;DHT22;26679;50.872;4.332;2022-11-20T02:00:11;6.30;99.90
39665;DHT22;26679;50.872;4.332;2022-11-20T02:02:38;6.30;99.90
39665;DHT22;26679;50.872;4.332;2022-11-20T02:05:09;6.30;99.90
39665;DHT22;26679;50.872;4.332;2022-11-20T02:07:37;6.40;99.90
39665;DHT22;26679;50.872;4.332;2022-11-20T02:10:03;6.40;99.90
39665;DHT22;26679;50.872;4.332;2022-11-20T02:12:28;6.40;99.90
39665;DHT22;26679;50.872;4.332;2022-11-20T02:15:05;6.40;99.90
39665;DHT22;26679;50.872;4.332;2022-11-20T02:17:30;6.30;99.90
39665;DHT22;26679;50.872;4.332;2022-11-20T02:19:56;6.40;99.90
39665;DHT22;26679;50.872;4.332;2022-11-20T02:22:28;6.40;99.90
39665;DHT22;26679;50.872;4.332;2022-11-20T02:24:56;6.20;99.90
39665;DHT22;26679;50.872;4.332;2022-11-20T02:27:23;6.20;99.90
39665;DHT22;26679;50.872;4.332;2022-11-20T02:29:56;6.00;99.90
39665;DHT22;26679;50.872;4.332;2022-11-20T02:34:48;6.00;99.90
39665;DHT22;26679;50.872;4.332;2022-11-20T02:37:13;5.80;99.90
39665;DHT22;26679;50.872;4.332;2022-11-20T02:39:39;5.90;99.90
39665;DHT22;26679;50.872;4.332;2022-11-20T02:42:05;5.90;99.90
39665;DHT22;26679;50.872;4.332;2022-11-20T02:44:30;5.90;99.90
39665;DHT22;26679;50.872;4.332;2022-11-20T02:46:57;6.00;99.90
39665;DHT22;26679;50.872;4.332;2022-11-20T02:49:23;6.00;99.90
39665;DHT22;26679;50.872;4.332;2022-11-20T02:51:48;6.00;99.90
39665;DHT22;26679;50.872;4.332;2022-11-20T02:54:13;6.00;99.90
39665;DHT22;26679;50.872;4.332;2022-11-20T02:56:39;6.00;99.90
39665;DHT22;26679;50.872;4.332;2022-11-20T02:59:05;6.10;99.90
39665;DHT22;26679;50.872;4.332;2022-11-20T03:01:31;6.10;99.90
39665;DHT22;26679;50.872;4.332;2022-11-20T03:03:56;6.10;99.90
39665;DHT22;26679;50.872;4.332;2022-11-20T03:06:21;6.20;99.90
39665;DHT22;26679;50.872;4.332;2022-11-20T03:08:47;6.20;99.90
39665;DHT22;26679;50.872;4.332;2022-11-20T03:11:13;6.10;99.90
39665;DHT22;26679;50.872;4.332;2022-11-20T03:13:38;6.10;99.90
39665;DHT22;26679;50.872;4.332;2022-11-20T03:16:05;6.10;99.90
39665;DHT22;26679;50.872;4.332;2022-11-20T03:18:31;6.20;99.90
39665;DHT22;26679;50.872;4.332;2022-11-20T03:20:57;6.20;99.90
39665;DHT22;26679;50.872;4.332;2022-11-20T03:23:24;6.30;99.90
39665;DHT22;26679;50.872;4.332;2022-11-20T03:25:49;6.30;99.90
39665;DHT22;26679;50.872;4.332;2022-11-20T03:28:15;6.20;99.90
39665;DHT22;26679;50.872;4.332;2022-11-20T03:30:40;6.10;99.90
39665;DHT22;26679;50.872;4.332;2022-11-20T03:33:06;6.20;99.90
39665;DHT22;26679;50.872;4.332;2022-11-20T03:35:31;6.20;99.90
39665;DHT22;26679;50.872;4.332;2022-11-20T03:37:57;6.10;99.90
39665;DHT22;26679;50.872;4.332;2022-11-20T03:40:22;6.00;99.90
39665;DHT22;26679;50.872;4.332;2022-11-20T03:42:48;6.10;99.90
39665;DHT22;26679;50.872;4.332;2022-11-20T03:45:14;6.20;99.90
39665;DHT22;26679;50.872;4.332;2022-11-20T03:47:40;6.10;99.90
39665;DHT22;26679;50.872;4.332;2022-11-20T03:50:06;6.20;99.90
39665;DHT22;26679;50.872;4.332;2022-11-20T03:52:32;6.20;99.90
39665;DHT22;26679;50.872;4.332;2022-11-20T03:54:57;6.30;99.90
39665;DHT22;26679;50.872;4.332;2022-11-20T03:57:22;6.30;99.90
39665;DHT22;26679;50.872;4.332;2022-11-20T03:59:48;6.30;99.90
39665;DHT22;26679;50.872;4.332;2022-11-20T04:02:14;6.40;99.90
39665;DHT22;26679;50.872;4.332;2022-11-20T04:04:39;6.40;99.90
39665;DHT22;26679;50.872;4.332;2022-11-20T04:07:04;6.30;99.90
39665;DHT22;26679;50.872;4.332;2022-11-20T04:09:30;6.30;99.90
39665;DHT22;26679;50.872;4.332;2022-11-20T04:11:55;6.40;99.90
39665;DHT22;26679;50.872;4.332;2022-11-20T04:14:21;6.40;99.90
39665;DHT22;26679;50.872;4.332;2022-11-20T04:16:46;6.40;99.90
39665;DHT22;26679;50.872;4.332;2022-11-20T04:19:13;6.20;99.90
39665;DHT22;26679;50.872;4.332;2022-11-20T04:21:39;6.20;99.90
39665;DHT22;26679;50.872;4.332;2022-11-20T04:24:04;6.20;99.90
39665;DHT22;26679;50.872;4.332;2022-11-20T04:26:30;6.20;99.90
39665;DHT22;26679;50.872;4.332;2022-11-20T04:28:56;6.00;99.90
39665;DHT22;26679;50.872;4.332;2022-11-20T04:31:26;5.90;99.90
39665;DHT22;26679;50.872;4.332;2022-11-20T04:33:52;5.90;99.90
39665;DHT22;26679;50.872;4.332;2022-11-20T04:36:22;6.10;99.90
39665;DHT22;26679;50.872;4.332;2022-11-20T04:38:54;6.00;99.90
39665;DHT22;26679;50.872;4.332;2022-11-20T04:41:21;6.00;99.90
39665;DHT22;26679;50.872;4.332;2022-11-20T04:43:50;6.10;99.90
39665;DHT22;26679;50.872;4.332;2022-11-20T04:46:16;6.10;99.90
39665;DHT22;26679;50.872;4.332;2022-11-20T04:48:42;5.90;99.90
39665;DHT22;26679;50.872;4.332;2022-11-20T04:51:07;6.00;99.90
39665;DHT22;26679;50.872;4.332;2022-11-20T04:53:33;6.10;99.90
39665;DHT22;26679;50.872;4.332;2022-11-20T04:55:59;6.20;99.90
39665;DHT22;26679;50.872;4.332;2022-11-20T04:58:25;6.20;99.90
39665;DHT22;26679;50.872;4.332;2022-11-20T05:00:50;6.10;99.90
39665;DHT22;26679;50.872;4.332;2022-11-20T05:03:16;6.10;99.90
39665;DHT22;26679;50.872;4.332;2022-11-20T05:05:42;6.10;99.90
39665;DHT22;26679;50.872;4.332;2022-11-20T05:08:07;6.10;99.90
39665;DHT22;26679;50.872;4.332;2022-11-20T05:10:33;6.10;99.90
39665;DHT22;26679;50.872;4.332;2022-11-20T05:12:58;6.20;99.90
39665;DHT22;26679;50.872;4.332;2022-11-20T05:15:24;6.20;99.90
39665;DHT22;26679;50.872;4.332;2022-11-20T05:17:50;6.30;99.90
39665;DHT22;26679;50.872;4.332;2022-11-20T05:20:16;6.30;99.90
39665;DHT22;26679;50.872;4.332;2022-11-20T05:22:41;6.30;99.90
39665;DHT22;26679;50.872;4.332;2022-11-20T05:25:07;6.40;99.90
39665;DHT22;26679;50.872;4.332;2022-11-20T05:27:33;6.50;99.90
39665;DHT22;26679;50.872;4.332;2022-11-20T05:29:58;6.50;99.90
39665;DHT22;26679;50.872;4.332;2022-11-20T05:32:24;6.70;99.90
39665;DHT22;26679;50.872;4.332;2022-11-20T05:34:53;6.60;99.90
39665;DHT22;26679;50.872;4.332;2022-11-20T05:37:19;6.50;99.90
39665;DHT22;26679;50.872;4.332;2022-11-20T05:39:44;6.60;99.90
39665;DHT22;26679;50.872;4.332;2022-11-20T05:42:10;6.60;99.90
39665;DHT22;26679;50.872;4.332;2022-11-20T05:44:46;6.50;99.90
39665;DHT22;26679;50.872;4.332;2022-11-20T05:47:12;6.60;99.90
39665;DHT22;26679;50.872;4.332;2022-11-20T05:49:37;6.60;99.90
39665;DHT22;26679;50.872;4.332;2022-11-20T05:52:03;6.70;99.90
39665;DHT22;26679;50.872;4.332;2022-11-20T05:54:28;6.60;99.90
39665;DHT22;26679;50.872;4.332;2022-11-20T05:56:54;6.60;99.90
39665;DHT22;26679;50.872;4.332;2022-11-20T05:59:19;6.30;99.90
39665;DHT22;26679;50.872;4.332;2022-11-20T06:01:44;6.20;99.90
39665;DHT22;26679;50.872;4.332;2022-11-20T06:04:10;6.20;99.90
39665;DHT22;26679;50.872;4.332;2022-11-20T06:06:35;6.20;99.90
39665;DHT22;26679;50.872;4.332;2022-11-20T06:09:01;6.00;99.90
39665;DHT22;26679;50.872;4.332;2022-11-20T06:11:26;6.00;99.90
39665;DHT22;26679;50.872;4.332;2022-11-20T06:13:52;6.10;99.90
39665;DHT22;26679;50.872;4.332;2022-11-20T06:16:18;6.10;99.90
39665;DHT22;26679;50.872;4.332;2022-11-20T06:18:44;6.20;99.90
39665;DHT22;26679;50.872;4.332;2022-11-20T06:21:11;6.20;99.90
39665;DHT22;26679;50.872;4.332;2022-11-20T06:23:37;6.10;99.90
39665;DHT22;26679;50.872;4.332;2022-11-20T06:26:03;6.00;99.90
39665;DHT22;26679;50.872;4.332;2022-11-20T06:28:32;6.10;99.90
39665;DHT22;26679;50.872;4.332;2022-11-20T06:30:57;6.70;99.90
39665;DHT22;26679;50.872;4.332;2022-11-20T06:33:23;6.20;99.90
39665;DHT22;26679;50.872;4.332;2022-11-20T06:35:49;6.30;99.90
39665;DHT22;26679;50.872;4.332;2022-11-20T06:38:14;6.20;99.90
39665;DHT22;26679;50.872;4.332;2022-11-20T06:40:43;6.30;99.90
39665;DHT22;26679;50.872;4.332;2022-11-20T06:43:11;6.30;99.90
39665;DHT22;26679;50.872;4.332;2022-11-20T06:45:37;6.40;99.90
39665;DHT22;26679;50.872;4.332;2022-11-20T06:48:02;6.60;99.90
39665;DHT22;26679;50.872;4.332;2022-11-20T06:50:28;6.60;99.90
39665;DHT22;26679;50.872;4.332;2022-11-20T06:52:54;6.60;99.90
39665;DHT22;26679;50.872;4.332;2022-11-20T06:55:19;6.60;99.90
39665;DHT22;26679;50.872;4.332;2022-11-20T06:57:45;6.50;99.90
39665;DHT22;26679;50.872;4.332;2022-11-20T07:00:12;6.40;99.90
39665;DHT22;26679;50.872;4.332;2022-11-20T07:02:38;6.40;99.90
39665;DHT22;26679;50.872;4.332;2022-11-20T07:05:03;6.50;99.90
39665;DHT22;26679;50.872;4.332;2022-11-20T07:07:29;7.00;99.90
39665;DHT22;26679;50.872;4.332;2022-11-20T07:09:55;6.60;99.90
39665;DHT22;26679;50.872;4.332;2022-11-20T07:12:21;6.40;99.90
39665;DHT22;26679;50.872;4.332;2022-11-20T07:14:46;6.20;99.90
39665;DHT22;26679;50.872;4.332;2022-11-20T07:17:12;6.20;99.90
39665;DHT22;26679;50.872;4.332;2022-11-20T07:19:37;6.20;99.90
39665;DHT22;26679;50.872;4.332;2022-11-20T07:22:03;6.40;99.90
39665;DHT22;26679;50.872;4.332;2022-11-20T07:24:28;6.50;99.90
39665;DHT22;26679;50.872;4.332;2022-11-20T07:26:54;6.40;99.90
39665;DHT22;26679;50.872;4.332;2022-11-20T07:29:19;6.20;99.90
39665;DHT22;26679;50.872;4.332;2022-11-20T07:31:45;6.20;99.90
39665;DHT22;26679;50.872;4.332;2022-11-20T07:34:10;6.40;99.90
39665;DHT22;26679;50.872;4.332;2022-11-20T07:36:36;6.40;99.90
39665;DHT22;26679;50.872;4.332;2022-11-20T07:39:01;6.60;99.90
39665;DHT22;26679;50.872;4.332;2022-11-20T07:41:27;6.30;99.90
39665;DHT22;26679;50.872;4.332;2022-11-20T07:43:52;6.30;99.90
39665;DHT22;26679;50.872;4.332;2022-11-20T07:46:18;6.40;99.90
39665;DHT22;26679;50.872;4.332;2022-11-20T07:48:44;6.60;99.90
39665;DHT22;26679;50.872;4.332;2022-11-20T07:51:10;6.80;99.90
39665;DHT22;26679;50.872;4.332;2022-11-20T07:53:35;6.60;99.90
39665;DHT22;26679;50.872;4.332;2022-11-20T07:56:02;6.60;99.90
39665;DHT22;26679;50.872;4.332;2022-11-20T07:58:30;7.20;99.90
39665;DHT22;26679;50.872;4.332;2022-11-20T08:01:01;6.50;99.90
39665;DHT22;26679;50.872;4.332;2022-11-20T08:03:27;6.80;99.90
39665;DHT22;26679;50.872;4.332;2022-11-20T08:05:52;6.30;99.90
39665;DHT22;26679;50.872;4.332;2022-11-20T08:08:18;6.30;99.90
39665;DHT22;26679;50.872;4.332;2022-11-20T08:10:43;6.40;99.90
39665;DHT22;26679;50.872;4.332;2022-11-20T08:13:09;6.50;99.90
39665;DHT22;26679;50.872;4.332;2022-11-20T08:15:49;6.60;99.90
39665;DHT22;26679;50.872;4.332;2022-11-20T08:18:17;6.80;99.90
39665;DHT22;26679;50.872;4.332;2022-11-20T08:20:43;6.90;99.90
39665;DHT22;26679;50.872;4.332;2022-11-20T08:23:08;7.10;99.90
39665;DHT22;26679;50.872;4.332;2022-11-20T08:25:35;7.20;99.90
39665;DHT22;26679;50.872;4.332;2022-11-20T08:28:01;7.20;99.90
39665;DHT22;26679;50.872;4.332;2022-11-20T08:30:27;7.10;99.90
39665;DHT22;26679;50.872;4.332;2022-11-20T08:32:53;7.00;99.90
39665;DHT22;26679;50.872;4.332;2022-11-20T08:35:19;7.00;99.90
39665;DHT22;26679;50.872;4.332;2022-11-20T08:37:48;6.90;99.90
39665;DHT22;26679;50.872;4.332;2022-11-20T08:40:14;6.90;99.90
39665;DHT22;26679;50.872;4.332;2022-11-20T08:45:17;7.30;99.90
39665;DHT22;26679;50.872;4.332;2022-11-20T08:47:43;7.40;99.90
39665;DHT22;26679;50.872;4.332;2022-11-20T08:50:12;7.40;99.90
39665;DHT22;26679;50.872;4.332;2022-11-20T08:52:37;7.30;99.90
39665;DHT22;26679;50.872;4.332;2022-11-20T08:55:03;7.50;99.90
39665;DHT22;26679;50.872;4.332;2022-11-20T08:57:33;7.60;99.90
39665;DHT22;26679;50.872;4.332;2022-11-20T08:59:58;7.70;99.90
39665;DHT22;26679;50.872;4.332;2022-11-20T09:02:24;7.90;99.90
39665;DHT22;26679;50.872;4.332;2022-11-20T09:04:50;8.00;99.90
39665;DHT22;26679;50.872;4.332;2022-11-20T09:07:15;8.00;99.90
39665;DHT22;26679;50.872;4.332;2022-11-20T09:09:41;8.20;99.90
39665;DHT22;26679;50.872;4.332;2022-11-20T09:12:06;8.30;99.90
39665;DHT22;26679;50.872;4.332;2022-11-20T09:14:32;7.80;99.90
39665;DHT22;26679;50.872;4.332;2022-11-20T09:16:58;8.30;99.90
39665;DHT22;26679;50.872;4.332;2022-11-20T09:19:24;8.30;99.90
39665;DHT22;26679;50.872;4.332;2022-11-20T09:21:50;8.70;99.90
39665;DHT22;26679;50.872;4.332;2022-11-20T09:24:15;8.60;99.90
39665;DHT22;26679;50.872;4.332;2022-11-20T09:26:41;8.70;99.90
39665;DHT22;26679;50.872;4.332;2022-11-20T09:29:07;8.50;99.90
39665;DHT22;26679;50.872;4.332;2022-11-20T09:31:32;8.60;99.90
39665;DHT22;26679;50.872;4.332;2022-11-20T09:33:58;8.60;99.90
39665;DHT22;26679;50.872;4.332;2022-11-20T09:36:23;8.70;99.90
39665;DHT22;26679;50.872;4.332;2022-11-20T09:38:49;8.90;99.90
39665;DHT22;26679;50.872;4.332;2022-11-20T09:46:39;9.10;99.90
39665;DHT22;26679;50.872;4.332;2022-11-20T09:51:36;9.20;99.90
39665;DHT22;26679;50.872;4.332;2022-11-20T09:56:28;9.30;99.90
39665;DHT22;26679;50.872;4.332;2022-11-20T09:58:55;9.40;99.90
39665;DHT22;26679;50.872;4.332;2022-11-20T10:01:26;9.50;99.90
39665;DHT22;26679;50.872;4.332;2022-11-20T10:03:58;9.60;99.90
39665;DHT22;26679;50.872;4.332;2022-11-20T10:06:30;9.70;99.90
39665;DHT22;26679;50.872;4.332;2022-11-20T10:11:35;9.50;99.90
39665;DHT22;26679;50.872;4.332;2022-11-20T10:16:48;9.40;99.90
39665;DHT22;26679;50.872;4.332;2022-11-20T10:19:25;9.50;99.90
39665;DHT22;26679;50.872;4.332;2022-11-20T10:21:58;9.30;99.90
39665;DHT22;26679;50.872;4.332;2022-11-20T10:24:30;9.50;99.90
39665;DHT22;26679;50.872;4.332;2022-11-20T10:29:38;9.70;99.90
39665;DHT22;26679;50.872;4.332;2022-11-20T10:32:10;9.70;99.90
39665;DHT22;26679;50.872;4.332;2022-11-20T10:37:16;9.90;99.90
39665;DHT22;26679;50.872;4.332;2022-11-20T10:39:44;10.20;99.90
39665;DHT22;26679;50.872;4.332;2022-11-20T10:44:52;10.30;99.90
39665;DHT22;26679;50.872;4.332;2022-11-20T10:47:26;10.30;99.90
39665;DHT22;26679;50.872;4.332;2022-11-20T10:49:53;10.10;99.90
39665;DHT22;26679;50.872;4.332;2022-11-20T10:57:46;10.00;99.90
39665;DHT22;26679;50.872;4.332;2022-11-20T11:00:15;10.00;99.90
39665;DHT22;26679;50.872;4.332;2022-11-20T11:02:49;9.90;99.90
39665;DHT22;26679;50.872;4.332;2022-11-20T11:07:40;10.10;99.90
39665;DHT22;26679;50.872;4.332;2022-11-20T11:10:16;10.10;99.90
39665;DHT22;26679;50.872;4.332;2022-11-20T11:12:43;10.10;99.90
39665;DHT22;26679;50.872;4.332;2022-11-20T11:15:11;10.10;99.90
39665;DHT22;26679;50.872;4.332;2022-11-20T11:17:38;10.00;99.90
39665;DHT22;26679;50.872;4.332;2022-11-20T11:20:18;10.00;99.90
39665;DHT22;26679;50.872;4.332;2022-11-20T11:25:28;9.90;99.90
39665;DHT22;26679;50.872;4.332;2022-11-20T11:27:55;9.80;99.90
39665;DHT22;26679;50.872;4.332;2022-11-20T11:30:22;9.80;99.90
39665;DHT22;26679;50.872;4.332;2022-11-20T11:32:48;9.90;99.90
39665;DHT22;26679;50.872;4.332;2022-11-20T11:37:48;10.00;99.90
39665;DHT22;26679;50.872;4.332;2022-11-20T11:40:14;9.80;99.90
39665;DHT22;26679;50.872;4.332;2022-11-20T11:42:43;10.30;99.90
39665;DHT22;26679;50.872;4.332;2022-11-20T11:45:14;9.40;99.90
39665;DHT22;26679;50.872;4.332;2022-11-20T11:55:12;9.20;99.90
39665;DHT22;26679;50.872;4.332;2022-11-20T12:07:51;8.80;99.90
39665;DHT22;26679;50.872;4.332;2022-11-20T12:10:23;8.80;99.90
39665;DHT22;26679;50.872;4.332;2022-11-20T12:12:53;8.80;99.90
39665;DHT22;26679;50.872;4.332;2022-11-20T12:15:25;8.80;99.90
39665;DHT22;26679;50.872;4.332;2022-11-20T12:17:51;8.80;99.90
39665;DHT22;26679;50.872;4.332;2022-11-20T12:20:17;8.60;99.90
39665;DHT22;26679;50.872;4.332;2022-11-20T12:25:24;8.60;99.90
39665;DHT22;26679;50.872;4.332;2022-11-20T12:27:55;8.60;99.90
39665;DHT22;26679;50.872;4.332;2022-11-20T12:30:24;8.60;99.90
39665;DHT22;26679;50.872;4.332;2022-11-20T12:40:47;8.40;99.90
39665;DHT22;26679;50.872;4.332;2022-11-20T12:43:22;8.40;99.90
39665;DHT22;26679;50.872;4.332;2022-11-20T12:46:04;8.50;99.90
39665;DHT22;26679;50.872;4.332;2022-11-20T13:06:34;8.70;99.90
39665;DHT22;26679;50.872;4.332;2022-11-20T13:09:00;8.60;99.90
39665;DHT22;26679;50.872;4.332;2022-11-20T13:19:13;8.60;99.90
39665;DHT22;26679;50.872;4.332;2022-11-20T13:21:41;8.60;99.90
39665;DHT22;26679;50.872;4.332;2022-11-20T13:24:19;8.70;99.90
39665;DHT22;26679;50.872;4.332;2022-11-20T13:26:45;8.70;99.90
39665;DHT22;26679;50.872;4.332;2022-11-20T13:29:12;8.50;99.90
39665;DHT22;26679;50.872;4.332;2022-11-20T13:31:46;8.40;99.90
39665;DHT22;26679;50.872;4.332;2022-11-20T13:36:53;8.30;99.90
39665;DHT22;26679;50.872;4.332;2022-11-20T13:41:59;8.30;99.90
39665;DHT22;26679;50.872;4.332;2022-11-20T13:44:29;8.30;99.90
39665;DHT22;26679;50.872;4.332;2022-11-20T13:46:55;8.40;99.90
39665;DHT22;26679;50.872;4.332;2022-11-20T13:49:23;8.50;99.90
39665;DHT22;26679;50.872;4.332;2022-11-20T13:51:51;8.50;99.90
39665;DHT22;26679;50.872;4.332;2022-11-20T14:01:47;8.60;99.90
39665;DHT22;26679;50.872;4.332;2022-11-20T14:04:15;8.60;99.90
39665;DHT22;26679;50.872;4.332;2022-11-20T14:06:41;8.40;99.90
39665;DHT22;26679;50.872;4.332;2022-11-20T14:09:11;8.40;99.90
39665;DHT22;26679;50.872;4.332;2022-11-20T14:11:45;8.40;99.90
39665;DHT22;26679;50.872;4.332;2022-11-20T14:14:18;8.40;99.90
39665;DHT22;26679;50.872;4.332;2022-11-20T14:16:44;8.50;99.90
39665;DHT22;26679;50.872;4.332;2022-11-20T14:21:41;8.50;99.90
39665;DHT22;26679;50.872;4.332;2022-11-20T14:24:10;8.60;99.90
39665;DHT22;26679;50.872;4.332;2022-11-20T14:26:36;8.60;99.90
39665;DHT22;26679;50.872;4.332;2022-11-20T14:29:02;8.60;99.90
39665;DHT22;26679;50.872;4.332;2022-11-20T14:31:28;8.60;99.90
39665;DHT22;26679;50.872;4.332;2022-11-20T14:33:54;8.60;99.90
39665;DHT22;26679;50.872;4.332;2022-11-20T14:36:20;8.70;99.90
39665;DHT22;26679;50.872;4.332;2022-11-20T14:38:46;8.70;99.90
39665;DHT22;26679;50.872;4.332;2022-11-20T14:41:19;8.60;99.90
39665;DHT22;26679;50.872;4.332;2022-11-20T14:43:46;8.60;99.90
39665;DHT22;26679;50.872;4.332;2022-11-20T14:46:12;8.60;99.90
39665;DHT22;26679;50.872;4.332;2022-11-20T14:48:39;8.60;99.90
39665;DHT22;26679;50.872;4.332;2022-11-20T14:51:04;8.80;99.90
39665;DHT22;26679;50.872;4.332;2022-11-20T14:53:32;8.70;99.90
39665;DHT22;26679;50.872;4.332;2022-11-20T14:55:58;8.80;99.90
39665;DHT22;26679;50.872;4.332;2022-11-20T14:58:25;8.80;99.90
39665;DHT22;26679;50.872;4.332;2022-11-20T15:00:58;8.70;99.90
39665;DHT22;26679;50.872;4.332;2022-11-20T15:03:34;8.70;99.90
39665;DHT22;26679;50.872;4.332;2022-11-20T15:06:00;8.80;99.90
39665;DHT22;26679;50.872;4.332;2022-11-20T15:08:26;8.80;99.90
39665;DHT22;26679;50.872;4.332;2022-11-20T15:10:51;8.90;99.90
39665;DHT22;26679;50.872;4.332;2022-11-20T15:13:22;9.00;99.90
39665;DHT22;26679;50.872;4.332;2022-11-20T15:15:50;9.00;99.90
39665;DHT22;26679;50.872;4.332;2022-11-20T15:18:19;9.00;99.90
39665;DHT22;26679;50.872;4.332;2022-11-20T15:20:45;9.00;99.90
39665;DHT22;26679;50.872;4.332;2022-11-20T15:23:13;9.10;99.90
39665;DHT22;26679;50.872;4.332;2022-11-20T15:25:40;9.10;99.90
39665;DHT22;26679;50.872;4.332;2022-11-20T15:28:12;9.20;99.90
39665;DHT22;26679;50.872;4.332;2022-11-20T15:30:39;9.30;99.90
39665;DHT22;26679;50.872;4.332;2022-11-20T15:33:04;9.30;99.90
39665;DHT22;26679;50.872;4.332;2022-11-20T15:35:32;9.30;99.90
39665;DHT22;26679;50.872;4.332;2022-11-20T15:37:58;9.70;99.90
39665;DHT22;26679;50.872;4.332;2022-11-20T15:40:23;9.40;99.90
39665;DHT22;26679;50.872;4.332;2022-11-20T15:42:49;9.40;99.90
39665;DHT22;26679;50.872;4.332;2022-11-20T15:45:25;9.30;99.90
39665;DHT22;26679;50.872;4.332;2022-11-20T15:47:52;9.30;99.90
39665;DHT22;26679;50.872;4.332;2022-11-20T15:50:18;9.30;99.90
39665;DHT22;26679;50.872;4.332;2022-11-20T15:52:43;9.40;99.90
39665;DHT22;26679;50.872;4.332;2022-11-20T15:55:09;9.50;99.90
39665;DHT22;26679;50.872;4.332;2022-11-20T15:57:35;9.40;99.90
39665;DHT22;26679;50.872;4.332;2022-11-20T16:00:00;9.50;99.90
39665;DHT22;26679;50.872;4.332;2022-11-20T16:02:26;9.50;99.90
39665;DHT22;26679;50.872;4.332;2022-11-20T16:04:51;9.70;99.90
39665;DHT22;26679;50.872;4.332;2022-11-20T16:07:17;9.60;99.90
39665;DHT22;26679;50.872;4.332;2022-11-20T16:09:42;9.70;99.90
39665;DHT22;26679;50.872;4.332;2022-11-20T16:12:09;9.70;99.90
39665;DHT22;26679;50.872;4.332;2022-11-20T16:14:54;9.60;99.90
39665;DHT22;26679;50.872;4.332;2022-11-20T16:17:31;9.60;99.90
39665;DHT22;26679;50.872;4.332;2022-11-20T16:20:10;9.60;99.90
39665;DHT22;26679;50.872;4.332;2022-11-20T16:22:35;9.70;99.90
39665;DHT22;26679;50.872;4.332;2022-11-20T16:25:03;9.70;99.90
39665;DHT22;26679;50.872;4.332;2022-11-20T16:27:29;9.70;99.90
39665;DHT22;26679;50.872;4.332;2022-11-20T16:29:54;9.70;99.90
39665;DHT22;26679;50.872;4.332;2022-11-20T16:32:20;9.60;99.90
39665;DHT22;26679;50.872;4.332;2022-11-20T16:34:45;10.20;99.90
39665;DHT22;26679;50.872;4.332;2022-11-20T16:37:11;9.50;99.90
39665;DHT22;26679;50.872;4.332;2022-11-20T16:39:36;9.50;99.90
39665;DHT22;26679;50.872;4.332;2022-11-20T16:42:03;9.60;99.90
39665;DHT22;26679;50.872;4.332;2022-11-20T16:44:28;9.70;99.90
39665;DHT22;26679;50.872;4.332;2022-11-20T16:46:54;9.70;99.90
39665;DHT22;26679;50.872;4.332;2022-11-20T16:49:20;9.80;99.90
39665;DHT22;26679;50.872;4.332;2022-11-20T16:51:45;9.70;99.90
39665;DHT22;26679;50.872;4.332;2022-11-20T16:54:11;9.60;99.90
39665;DHT22;26679;50.872;4.332;2022-11-20T16:56:37;9.60;99.90
39665;DHT22;26679;50.872;4.332;2022-11-20T16:59:03;9.80;99.90
39665;DHT22;26679;50.872;4.332;2022-11-20T17:01:29;9.70;99.90
39665;DHT22;26679;50.872;4.332;2022-11-20T17:06:25;9.60;99.90
39665;DHT22;26679;50.872;4.332;2022-11-20T17:08:52;10.20;99.90
39665;DHT22;26679;50.872;4.332;2022-11-20T17:11:18;9.60;99.90
39665;DHT22;26679;50.872;4.332;2022-11-20T17:13:44;9.70;99.90
39665;DHT22;26679;50.872;4.332;2022-11-20T17:16:11;9.70;99.90
39665;DHT22;26679;50.872;4.332;2022-11-20T17:18:36;9.70;99.90
39665;DHT22;26679;50.872;4.332;2022-11-20T17:21:02;9.80;99.90
39665;DHT22;26679;50.872;4.332;2022-11-20T17:23:31;9.80;99.90
39665;DHT22;26679;50.872;4.332;2022-11-20T17:26:04;9.70;99.90
39665;DHT22;26679;50.872;4.332;2022-11-20T17:28:30;9.80;99.90
39665;DHT22;26679;50.872;4.332;2022-11-20T17:31:03;10.00;99.90
39665;DHT22;26679;50.872;4.332;2022-11-20T17:33:29;9.80;99.90
39665;DHT22;26679;50.872;4.332;2022-11-20T17:35:55;9.90;99.90
39665;DHT22;26679;50.872;4.332;2022-11-20T17:38:20;9.90;99.90
39665;DHT22;26679;50.872;4.332;2022-11-20T17:40:46;9.90;99.90
39665;DHT22;26679;50.872;4.332;2022-11-20T17:45:57;9.70;99.90